createdAt,value
2023-05-09T00:00:34.152Z,3.05
2023-05-09T00:03:06.367Z,3.75
2023-05-09T00:05:39.185Z,3.45
2023-05-09T00:08:12.145Z,3.50
2023-05-09T00:10:44.443Z,3.38
2023-05-09T00:13:16.646Z,3.47
2023-05-09T00:15:49.113Z,3.72
2023-05-09T00:18:22.423Z,3.58
2023-05-09T00:20:54.847Z,2.80
2023-05-09T00:23:26.990Z,3.70
2023-05-09T00:26:00.132Z,3.30
2023-05-09T00:28:32.644Z,2.90
2023-05-09T00:31:05.739Z,3.17
2023-05-09T00:33:37.865Z,2.92
2023-05-09T00:36:09.982Z,2.85
2023-05-09T00:38:42.086Z,2.85
2023-05-09T00:41:14.300Z,2.85
2023-05-09T00:43:46.738Z,3.08
2023-05-09T00:46:18.995Z,3.35
2023-05-09T00:48:52.650Z,2.85
2023-05-09T00:51:26.192Z,3.00
2023-05-09T00:53:59.004Z,2.70
2023-05-09T00:56:31.865Z,2.65
2023-05-09T00:59:04.407Z,3.20
2023-05-09T01:01:36.995Z,2.97
2023-05-09T01:04:09.203Z,2.92
2023-05-09T01:07:12.273Z,3.05
2023-05-09T01:09:59.084Z,2.53
2023-05-09T01:13:05.300Z,2.92
2023-05-09T01:15:45.222Z,2.72
2023-05-09T01:18:37.734Z,3.67
2023-05-09T01:21:16.633Z,2.47
2023-05-09T01:24:02.274Z,3.15
2023-05-09T01:27:02.351Z,2.63
2023-05-09T01:29:48.517Z,2.83
2023-05-09T01:32:27.084Z,2.53
2023-05-09T01:35:04.790Z,2.78
2023-05-09T01:37:42.688Z,3.08
2023-05-09T01:40:17.938Z,2.50
2023-05-09T01:43:01.558Z,3.30
2023-05-09T01:45:34.368Z,2.65
2023-05-09T01:48:09.004Z,2.85
2023-05-09T01:50:43.996Z,3.38
2023-05-09T01:53:17.793Z,2.55
2023-05-09T01:55:52.137Z,2.55
2023-05-09T01:58:26.240Z,3.15
2023-05-09T02:00:59.837Z,2.78
2023-05-09T02:03:34.326Z,3.08
2023-05-09T02:06:11.192Z,2.83
2023-05-09T02:08:44.175Z,3.05
2023-05-09T02:11:16.686Z,2.45
2023-05-09T02:13:49.028Z,3.63
2023-05-09T02:16:21.448Z,2.50
2023-05-09T02:18:53.798Z,3.13
2023-05-09T02:21:27.316Z,3.22
2023-05-09T02:24:01.375Z,2.85
2023-05-09T02:26:34.646Z,2.42
2023-05-09T02:29:08.518Z,3.00
2023-05-09T02:31:42.858Z,3.35
2023-05-09T02:34:16.464Z,3.20
2023-05-09T02:36:49.007Z,2.75
2023-05-09T02:39:21.267Z,2.50
2023-05-09T02:41:53.504Z,2.70
2023-05-09T02:44:25.576Z,3.33
2023-05-09T02:46:57.920Z,3.10
2023-05-09T02:49:32.465Z,2.97
2023-05-09T02:52:05.423Z,2.90
2023-05-09T02:54:38.670Z,2.97
2023-05-09T02:57:10.859Z,3.03
2023-05-09T02:59:43.072Z,3.42
2023-05-09T03:02:15.487Z,2.97
2023-05-09T03:04:47.575Z,3.20
2023-05-09T03:07:19.760Z,3.65
2023-05-09T03:09:51.844Z,3.42
2023-05-09T03:12:24.406Z,3.35
2023-05-09T03:14:57.202Z,2.80
2023-05-09T03:17:29.304Z,3.60
2023-05-09T03:20:04.262Z,3.33
2023-05-09T03:22:37.056Z,3.03
2023-05-09T03:25:10.671Z,3.22
2023-05-09T03:27:43.005Z,2.97
2023-05-09T03:30:15.391Z,3.47
2023-05-09T03:32:47.657Z,3.33
2023-05-09T03:35:20.078Z,3.88
2023-05-09T03:37:52.178Z,3.60
2023-05-09T03:40:27.249Z,3.38
2023-05-09T03:42:59.494Z,3.65
2023-05-09T03:45:31.708Z,3.50
2023-05-09T03:48:05.608Z,3.17
2023-05-09T03:50:38.250Z,3.95
2023-05-09T03:53:10.572Z,3.05
2023-05-09T03:55:45.150Z,3.92
2023-05-09T03:58:19.524Z,3.85
2023-05-09T04:00:51.676Z,3.70
2023-05-09T04:03:24.042Z,3.42
2023-05-09T04:05:56.596Z,3.65
2023-05-09T04:08:28.901Z,3.40
2023-05-09T04:11:01.323Z,3.78
2023-05-09T04:13:34.499Z,3.38
2023-05-09T04:16:06.796Z,3.00
2023-05-09T04:18:42.359Z,3.38
2023-05-09T04:21:14.552Z,3.47
2023-05-09T04:23:46.719Z,4.20
2023-05-09T04:26:18.820Z,3.72
2023-05-09T04:28:51.178Z,4.28
2023-05-09T04:31:23.662Z,3.97
2023-05-09T04:33:56.092Z,3.70
2023-05-09T04:36:29.106Z,4.57
2023-05-09T04:39:04.386Z,3.72
2023-05-09T04:41:36.944Z,3.70
2023-05-09T04:44:09.334Z,4.45
2023-05-09T04:46:41.533Z,3.67
2023-05-09T04:49:13.842Z,4.50
2023-05-09T04:51:46.114Z,4.70
2023-05-09T04:54:18.308Z,4.50
2023-05-09T04:56:50.750Z,4.55
2023-05-09T04:59:23.671Z,4.18
2023-05-09T05:01:55.843Z,4.63
2023-05-09T05:04:28.453Z,4.95
2023-05-09T05:07:00.698Z,4.35
2023-05-09T05:09:32.779Z,4.32
2023-05-09T05:12:09.370Z,4.32
2023-05-09T05:14:42.114Z,5.47
2023-05-09T05:17:14.332Z,4.40
2023-05-09T05:19:46.568Z,4.90
2023-05-09T05:22:18.837Z,4.53
2023-05-09T05:24:51.132Z,4.18
2023-05-09T05:27:23.269Z,4.82
2023-05-09T05:29:56.814Z,3.97
2023-05-09T05:32:28.899Z,5.03
2023-05-09T05:35:02.796Z,4.40
2023-05-09T05:37:35.004Z,4.88
2023-05-09T05:40:08.280Z,5.40
2023-05-09T05:42:40.497Z,4.60
2023-05-09T05:45:13.126Z,4.13
2023-05-09T05:47:45.849Z,4.70
2023-05-09T05:50:18.531Z,4.68
2023-05-09T05:52:50.939Z,6.03
2023-05-09T05:55:23.075Z,4.60
2023-05-09T05:57:55.183Z,5.07
2023-05-09T06:00:27.659Z,4.45
2023-05-09T06:02:59.910Z,4.55
2023-05-09T06:05:32.398Z,5.03
2023-05-09T06:08:05.001Z,5.45
2023-05-09T06:10:37.234Z,4.72
2023-05-09T06:13:11.290Z,5.10
2023-05-09T06:15:43.970Z,5.10
2023-05-09T06:18:16.110Z,5.15
2023-05-09T06:20:48.249Z,5.10
2023-05-09T06:23:22.431Z,4.63
2023-05-09T06:25:54.532Z,4.95
2023-05-09T06:28:27.169Z,5.20
2023-05-09T06:30:59.344Z,4.95
2023-05-09T06:33:31.967Z,5.55
2023-05-09T06:36:04.568Z,5.20
2023-05-09T06:38:36.784Z,5.38
2023-05-09T06:41:08.891Z,5.15
2023-05-09T06:43:40.993Z,5.15
2023-05-09T06:46:13.218Z,5.70
2023-05-09T06:48:45.605Z,5.15
2023-05-09T06:51:17.683Z,5.70
2023-05-09T06:53:49.950Z,5.60
2023-05-09T06:56:25.211Z,5.97
2023-05-09T06:58:57.420Z,6.00
2023-05-09T07:01:29.638Z,5.13
2023-05-09T07:04:01.928Z,5.72
2023-05-09T07:06:34.299Z,5.38
2023-05-09T07:09:06.486Z,5.32
2023-05-09T07:11:38.639Z,5.85
2023-05-09T07:14:13.324Z,6.38
2023-05-09T07:16:48.091Z,5.45
2023-05-09T07:19:21.402Z,7.03
2023-05-09T07:21:53.631Z,6.05
2023-05-09T07:24:25.782Z,5.72
2023-05-09T07:27:01.672Z,5.93
2023-05-09T07:29:33.835Z,6.07
2023-05-09T07:32:06.456Z,6.00
2023-05-09T07:34:38.713Z,5.82
2023-05-09T07:37:11.274Z,7.22
2023-05-09T07:39:44.478Z,6.47
2023-05-09T07:42:16.746Z,7.57
2023-05-09T07:44:48.890Z,6.25
2023-05-09T07:47:21.492Z,6.30
2023-05-09T07:49:56.483Z,6.15
2023-05-09T07:52:29.233Z,6.25
2023-05-09T07:55:01.978Z,5.60
2023-05-09T07:57:34.129Z,6.22
2023-05-09T08:00:08.344Z,6.00
2023-05-09T08:02:40.977Z,5.90
2023-05-09T08:05:14.623Z,5.90
2023-05-09T08:07:47.235Z,5.13
2023-05-09T08:10:19.695Z,5.35
2023-05-09T08:12:51.918Z,5.30
2023-05-09T08:15:24.273Z,5.10
2023-05-09T08:17:56.442Z,5.90
2023-05-09T08:20:28.592Z,5.97
2023-05-09T08:23:00.977Z,6.43
2023-05-09T08:25:33.834Z,5.78
2023-05-09T08:28:06.140Z,6.30
2023-05-09T08:30:38.334Z,6.60
2023-05-09T08:33:10.830Z,5.85
2023-05-09T08:35:43.367Z,7.53
2023-05-09T08:38:15.686Z,7.53
2023-05-09T08:40:48.591Z,7.05
2023-05-09T08:43:24.106Z,7.13
2023-05-09T08:46:07.873Z,5.88
2023-05-09T08:48:41.508Z,6.25
2023-05-09T08:51:14.281Z,6.18
2023-05-09T08:53:46.792Z,6.72
2023-05-09T08:56:19.441Z,6.57
2023-05-09T08:58:53.281Z,6.75
2023-05-09T09:01:27.110Z,7.03
2023-05-09T09:04:00.963Z,6.55
2023-05-09T09:06:36.900Z,6.47
2023-05-09T09:09:09.950Z,5.70
2023-05-09T09:11:43.125Z,6.43
2023-05-09T09:14:27.955Z,5.82
2023-05-09T09:17:01.294Z,5.72
2023-05-09T09:19:36.123Z,5.78
2023-05-09T09:22:12.741Z,6.45
2023-05-09T09:24:45.181Z,7.13
2023-05-09T09:27:17.539Z,6.70
2023-05-09T09:29:49.813Z,6.55
2023-05-09T09:32:33.243Z,7.32
2023-05-09T09:35:12.049Z,8.38
2023-05-09T09:37:44.108Z,7.60
2023-05-09T09:40:17.360Z,7.10
2023-05-09T09:42:52.056Z,6.72
2023-05-09T09:45:24.292Z,6.20
2023-05-09T09:47:56.712Z,6.32
2023-05-09T09:50:28.972Z,6.63
2023-05-09T09:53:01.237Z,6.40
2023-05-09T09:55:35.943Z,5.63
2023-05-09T09:58:25.254Z,5.95
2023-05-09T10:01:14.263Z,7.10
2023-05-09T10:03:47.137Z,6.07
2023-05-09T10:06:19.281Z,5.63
2023-05-09T10:08:51.962Z,5.88
2023-05-09T10:11:24.729Z,5.68
2023-05-09T10:13:56.938Z,6.50
2023-05-09T10:16:40.210Z,5.32
2023-05-09T10:19:21.707Z,5.25
2023-05-09T10:22:18.104Z,6.38
2023-05-09T10:25:13.538Z,5.15
2023-05-09T10:27:47.434Z,6.60
2023-05-09T10:30:23.858Z,5.78
2023-05-09T10:33:11.571Z,5.40
2023-05-09T10:35:48.631Z,5.60
2023-05-09T10:38:21.452Z,5.53
2023-05-09T10:40:55.995Z,5.55
2023-05-09T10:43:28.954Z,5.20
2023-05-09T10:46:02.960Z,5.90
2023-05-09T10:48:36.626Z,4.63
2023-05-09T10:51:09.875Z,5.18
2023-05-09T10:53:50.094Z,5.93
2023-05-09T10:56:33.912Z,5.25
2023-05-09T10:59:06.137Z,5.60
2023-05-09T11:01:39.808Z,4.95
2023-05-09T11:04:14.886Z,4.53
2023-05-09T11:06:56.437Z,6.05
2023-05-09T11:09:41.725Z,4.82
2023-05-09T11:12:22.167Z,4.97
2023-05-09T11:15:07.517Z,5.05
2023-05-09T11:17:40.595Z,4.47
2023-05-09T11:20:12.939Z,5.53
2023-05-09T11:22:47.354Z,6.03
2023-05-09T11:25:28.666Z,4.53
2023-05-09T11:28:03.819Z,5.63
2023-05-09T11:30:44.073Z,5.32
2023-05-09T11:33:25.009Z,4.28
2023-05-09T11:36:28.119Z,5.05
2023-05-09T11:39:04.656Z,4.15
2023-05-09T11:41:47.059Z,4.78
2023-05-09T11:44:21.696Z,5.70
2023-05-09T11:46:54.022Z,5.20
2023-05-09T11:49:28.489Z,5.75
2023-05-09T11:52:00.831Z,4.20
2023-05-09T11:54:32.901Z,4.70
2023-05-09T11:57:06.070Z,4.97
2023-05-09T11:59:39.114Z,4.22
2023-05-09T12:02:12.316Z,5.03
2023-05-09T12:04:44.580Z,4.72
2023-05-09T12:07:17.451Z,4.82
2023-05-09T12:09:50.710Z,5.10
2023-05-09T12:12:23.020Z,4.95
2023-05-09T12:14:56.304Z,4.35
2023-05-09T12:17:28.442Z,4.18
2023-05-09T12:20:01.483Z,4.13
2023-05-09T12:22:34.424Z,5.20
2023-05-09T12:25:10.605Z,4.25
2023-05-09T12:27:42.848Z,4.28
2023-05-09T12:30:16.341Z,4.97
2023-05-09T12:32:48.549Z,4.47
2023-05-09T12:35:23.822Z,4.22
2023-05-09T12:37:59.079Z,4.65
2023-05-09T12:40:31.580Z,4.90
2023-05-09T12:43:04.580Z,4.13
2023-05-09T12:45:39.568Z,4.32
2023-05-09T12:48:12.403Z,9.52
2023-05-09T12:50:48.013Z,4.43
2023-05-09T12:53:31.342Z,5.43
2023-05-09T12:56:05.815Z,5.55
2023-05-09T12:58:39.132Z,4.90
2023-05-09T13:01:14.831Z,4.63
2023-05-09T13:04:01.776Z,5.40
2023-05-09T13:06:36.049Z,3.88
2023-05-09T13:09:09.550Z,4.45
2023-05-09T13:11:42.094Z,4.03
2023-05-09T13:14:15.237Z,4.35
2023-05-09T13:16:47.486Z,3.78
2023-05-09T13:19:19.630Z,4.35
2023-05-09T13:21:52.933Z,4.18
2023-05-09T13:24:49.372Z,4.30
2023-05-09T13:27:21.538Z,4.85
2023-05-09T13:29:54.276Z,5.28
2023-05-09T13:32:26.732Z,5.35
2023-05-09T13:35:01.603Z,5.35
2023-05-09T13:37:36.653Z,5.20
2023-05-09T13:40:09.996Z,5.72
2023-05-09T13:42:42.234Z,5.20
2023-05-09T13:45:14.470Z,5.25
2023-05-09T13:47:46.758Z,4.68
2023-05-09T13:50:19.063Z,5.47
2023-05-09T13:52:51.143Z,5.40
2023-05-09T13:55:23.254Z,4.78
2023-05-09T13:57:58.544Z,5.05
2023-05-09T14:00:30.775Z,6.40
2023-05-09T14:03:03.518Z,4.72
2023-05-09T14:05:35.638Z,4.75
2023-05-09T14:08:08.134Z,3.95
2023-05-09T14:10:40.295Z,4.18
2023-05-09T14:13:12.856Z,4.40
2023-05-09T14:15:45.087Z,4.53
2023-05-09T14:18:20.142Z,4.38
2023-05-09T14:20:53.089Z,4.65
2023-05-09T14:23:25.307Z,4.03
2023-05-09T14:25:57.593Z,4.00
2023-05-09T14:28:29.718Z,4.65
2023-05-09T14:31:01.875Z,4.10
2023-05-09T14:33:36.137Z,4.47
2023-05-09T14:36:08.338Z,4.90
2023-05-09T14:38:41.713Z,4.53
2023-05-09T14:41:16.892Z,4.43
2023-05-09T14:43:49.253Z,4.85
2023-05-09T14:46:21.529Z,4.55
2023-05-09T14:48:54.227Z,3.90
2023-05-09T14:51:26.278Z,4.28
2023-05-09T14:54:01.664Z,4.32
2023-05-09T14:56:35.616Z,5.60
2023-05-09T14:59:07.786Z,4.28
2023-05-09T15:01:40.070Z,4.47
2023-05-09T15:04:12.476Z,4.38
2023-05-09T15:06:45.601Z,4.13
2023-05-09T15:09:19.506Z,7.35
2023-05-09T15:11:51.757Z,4.88
2023-05-09T15:14:23.850Z,4.65
2023-05-09T15:16:59.329Z,4.57
2023-05-09T15:19:32.635Z,5.05
2023-05-09T15:22:06.249Z,4.38
2023-05-09T15:24:38.379Z,4.68
2023-05-09T15:27:10.901Z,5.22
2023-05-09T15:29:42.990Z,4.00
2023-05-09T15:32:15.077Z,5.57
2023-05-09T15:34:47.566Z,4.68
2023-05-09T15:37:19.656Z,5.10
2023-05-09T15:39:52.379Z,4.82
2023-05-09T15:42:25.467Z,5.00
2023-05-09T15:44:57.599Z,4.60
2023-05-09T15:47:30.120Z,4.28
2023-05-09T15:50:02.235Z,4.85
2023-05-09T15:52:34.492Z,4.32
2023-05-09T15:55:08.807Z,3.92
2023-05-09T15:57:41.072Z,4.38
2023-05-09T16:00:16.691Z,3.90
2023-05-09T16:02:49.242Z,4.03
2023-05-09T16:05:21.525Z,4.90
2023-05-09T16:07:56.554Z,5.07
2023-05-09T16:10:28.790Z,4.70
2023-05-09T16:13:01.853Z,4.72
2023-05-09T16:15:34.272Z,5.20
2023-05-09T16:18:06.695Z,4.68
2023-05-09T16:20:38.971Z,5.00
2023-05-09T16:23:11.978Z,4.43
2023-05-09T16:25:45.142Z,4.78
2023-05-09T16:28:19.668Z,4.82
2023-05-09T16:30:52.014Z,5.22
2023-05-09T16:33:24.206Z,4.38
2023-05-09T16:35:56.720Z,4.90
2023-05-09T16:38:28.829Z,5.43
2023-05-09T16:41:01.048Z,5.13
2023-05-09T16:43:33.252Z,4.88
2023-05-09T16:46:05.401Z,5.38
2023-05-09T16:48:39.038Z,4.90
2023-05-09T16:51:16.538Z,4.78
2023-05-09T16:54:01.483Z,5.53
2023-05-09T16:56:45.650Z,4.97
2023-05-09T16:59:26.781Z,4.30
2023-05-09T17:02:01.090Z,6.53
2023-05-09T17:04:37.773Z,5.07
2023-05-09T17:10:04.497Z,4.60
2023-05-09T17:12:39.793Z,4.82
2023-05-09T17:15:23.497Z,5.57
2023-05-09T17:17:56.276Z,4.68
2023-05-09T17:20:29.410Z,4.68
2023-05-09T17:23:01.843Z,4.55
2023-05-09T17:25:34.332Z,4.43
2023-05-09T17:28:07.841Z,4.70
2023-05-09T17:30:40.204Z,4.72
2023-05-09T17:33:12.946Z,5.10
2023-05-09T17:35:46.002Z,5.07
2023-05-09T17:38:18.365Z,5.75
2023-05-09T17:40:50.771Z,5.55
2023-05-09T17:43:24.294Z,6.25
2023-05-09T17:45:57.083Z,5.15
2023-05-09T17:48:29.511Z,5.10
2023-05-09T17:51:01.916Z,4.38
2023-05-09T17:53:34.431Z,4.63
2023-05-09T17:56:06.839Z,4.68
2023-05-09T17:58:39.319Z,4.70
2023-05-09T18:01:14.294Z,4.60
2023-05-09T18:03:47.029Z,4.45
2023-05-09T18:06:19.602Z,4.60
2023-05-09T18:08:51.960Z,4.63
2023-05-09T18:11:24.849Z,4.43
2023-05-09T18:13:57.155Z,4.82
2023-05-09T18:16:29.820Z,4.63
2023-05-09T18:19:02.330Z,5.22
2023-05-09T18:21:34.887Z,5.03
2023-05-09T18:24:09.340Z,4.90
2023-05-09T18:26:41.706Z,4.15
2023-05-09T18:29:14.221Z,5.20
2023-05-09T18:31:46.852Z,4.90
2023-05-09T18:34:19.179Z,5.32
2023-05-09T18:36:52.775Z,4.32
2023-05-09T18:39:25.052Z,5.00
2023-05-09T18:41:57.658Z,4.35
2023-05-09T18:44:30.545Z,4.20
2023-05-09T18:47:03.069Z,4.35
2023-05-09T18:49:35.321Z,4.50
2023-05-09T18:52:07.541Z,4.95
2023-05-09T18:54:41.493Z,5.30
2023-05-09T18:57:13.994Z,7.18
2023-05-09T18:59:46.625Z,6.82
2023-05-09T19:02:21.030Z,7.13
2023-05-09T19:04:53.467Z,6.63
2023-05-09T19:07:25.915Z,9.13
2023-05-09T19:09:58.372Z,9.13
2023-05-09T19:12:35.660Z,9.60
2023-05-09T19:15:08.800Z,8.95
2023-05-09T19:17:44.823Z,9.63
2023-05-09T19:20:17.457Z,9.73
2023-05-09T19:22:51.707Z,10.20
2023-05-09T19:25:24.900Z,10.25
2023-05-09T19:27:57.415Z,10.60
2023-05-09T19:30:29.722Z,11.68
2023-05-09T19:33:02.080Z,13.25
2023-05-09T19:35:34.322Z,11.15
2023-05-09T19:38:06.675Z,10.88
2023-05-09T19:40:40.008Z,13.25
2023-05-09T19:43:12.475Z,10.85
2023-05-09T19:45:47.976Z,10.80
2023-05-09T19:48:20.333Z,9.85
2023-05-09T19:50:58.604Z,9.60
2023-05-09T19:53:30.979Z,9.65
2023-05-09T19:56:03.235Z,9.90
2023-05-09T19:58:35.666Z,8.82
2023-05-09T20:01:08.113Z,7.93
2023-05-09T20:03:42.534Z,9.30
2023-05-09T20:06:14.775Z,8.45
2023-05-09T20:08:47.381Z,8.07
2023-05-09T20:11:19.801Z,8.98
2023-05-09T20:13:52.299Z,8.13
2023-05-09T20:16:25.129Z,7.65
2023-05-09T20:18:58.863Z,8.23
2023-05-09T20:21:31.334Z,8.65
2023-05-09T20:24:03.974Z,8.10
2023-05-09T20:26:36.216Z,8.65
2023-05-09T20:29:08.723Z,8.55
2023-05-09T20:31:41.834Z,8.60
2023-05-09T20:34:18.007Z,8.35
2023-05-09T20:36:53.823Z,9.02
2023-05-09T20:39:27.131Z,9.15
2023-05-09T20:42:02.588Z,9.27
2023-05-09T20:44:35.026Z,9.20
2023-05-09T20:47:07.512Z,8.85
2023-05-09T20:49:39.715Z,7.45
2023-05-09T20:52:14.762Z,8.07
2023-05-09T20:54:47.772Z,9.32
2023-05-09T20:57:20.071Z,8.48
2023-05-09T20:59:52.275Z,7.82
2023-05-09T21:02:24.648Z,8.82
2023-05-09T21:04:57.045Z,8.75
2023-05-09T21:07:29.299Z,7.72
2023-05-09T21:10:01.722Z,8.23
2023-05-09T21:12:33.941Z,8.23
2023-05-09T21:15:07.210Z,7.03
2023-05-09T21:17:39.656Z,7.40
2023-05-09T21:20:12.533Z,8.60
2023-05-09T21:22:44.853Z,8.02
2023-05-09T21:25:17.794Z,8.75
2023-05-09T21:27:50.509Z,7.85
2023-05-09T21:30:22.800Z,8.07
2023-05-09T21:32:55.057Z,8.30
2023-05-09T21:35:27.334Z,7.57
2023-05-09T21:37:59.684Z,7.97
2023-05-09T21:40:32.033Z,8.77
2023-05-09T21:43:04.400Z,7.38
2023-05-09T21:45:36.779Z,6.68
2023-05-09T21:48:09.041Z,7.18
2023-05-09T21:50:44.714Z,6.65
2023-05-09T21:53:17.027Z,7.25
2023-05-09T21:55:51.149Z,7.20
2023-05-09T21:58:23.527Z,6.50
2023-05-09T22:00:56.007Z,7.32
2023-05-09T22:03:28.358Z,7.72
2023-05-09T22:06:00.821Z,8.35
2023-05-09T22:08:33.045Z,7.43
2023-05-09T22:11:08.097Z,7.35
2023-05-09T22:13:40.440Z,6.55
2023-05-09T22:16:13.547Z,7.38
2023-05-09T22:18:45.766Z,6.90
2023-05-09T22:21:17.995Z,6.57
2023-05-09T22:23:50.359Z,8.32
2023-05-09T22:26:22.710Z,8.23
2023-05-09T22:28:55.020Z,7.25
2023-05-09T22:31:27.408Z,7.70
2023-05-09T22:33:59.735Z,7.50
2023-05-09T22:36:32.450Z,7.95
2023-05-09T22:39:04.705Z,7.10
2023-05-09T22:41:36.954Z,6.75
2023-05-09T22:44:09.889Z,7.22
2023-05-09T22:46:42.141Z,7.15
2023-05-09T22:49:14.555Z,6.57
2023-05-09T22:51:47.008Z,6.72
2023-05-09T22:54:21.563Z,6.72
2023-05-09T22:56:53.879Z,6.70
2023-05-09T22:59:26.753Z,6.32
2023-05-09T23:01:59.778Z,5.75
2023-05-09T23:04:32.132Z,5.10
2023-05-09T23:07:04.410Z,5.20
2023-05-09T23:09:36.639Z,5.35
2023-05-09T23:12:12.012Z,5.75
2023-05-09T23:14:44.242Z,4.78
2023-05-09T23:17:16.742Z,4.88
2023-05-09T23:19:48.952Z,5.13
2023-05-09T23:22:21.652Z,4.35
2023-05-09T23:24:53.938Z,4.60
2023-05-09T23:27:26.622Z,4.90
2023-05-09T23:29:58.799Z,4.82
2023-05-09T23:32:31.378Z,3.63
2023-05-09T23:35:04.544Z,3.33
2023-05-09T23:37:36.920Z,3.15
2023-05-09T23:40:09.844Z,2.90
2023-05-09T23:42:42.204Z,3.05
2023-05-09T23:45:14.476Z,3.17
2023-05-09T23:47:46.720Z,3.00
2023-05-09T23:50:19.224Z,2.50
2023-05-09T23:52:51.444Z,2.33
2023-05-09T23:55:23.623Z,3.10
2023-05-09T23:57:55.810Z,3.47
